sensor_id;sensor_type;location;lat;lon;timestamp;pressure;altitude;pressure_sealevel;temperature
18219;BMP180;9234;49.344;11.120;2023-03-05T00:00:06;97655.00;;;3.90
18219;BMP180;9234;49.344;11.120;2023-03-05T00:02:39;97672.00;;;3.90
18219;BMP180;9234;49.344;11.120;2023-03-05T00:05:09;97659.00;;;4.00
18219;BMP180;9234;49.344;11.120;2023-03-05T00:07:37;97653.00;;;4.00
18219;BMP180;9234;49.344;11.120;2023-03-05T00:10:07;97667.00;;;4.00
18219;BMP180;9234;49.344;11.120;2023-03-05T00:12:37;97662.00;;;3.90
18219;BMP180;9234;49.344;11.120;2023-03-05T00:15:07;97674.00;;;4.00
18219;BMP180;9234;49.344;11.120;2023-03-05T00:17:36;97662.00;;;4.00
18219;BMP180;9234;49.344;11.120;2023-03-05T00:20:05;97659.00;;;4.00
18219;BMP180;9234;49.344;11.120;2023-03-05T00:22:34;97667.00;;;3.90
18219;BMP180;9234;49.344;11.120;2023-03-05T00:25:03;97659.00;;;3.90
18219;BMP180;9234;49.344;11.120;2023-03-05T00:27:32;97645.00;;;3.90
18219;BMP180;9234;49.344;11.120;2023-03-05T00:30:03;97648.00;;;3.90
18219;BMP180;9234;49.344;11.120;2023-03-05T00:32:31;97654.00;;;3.90
18219;BMP180;9234;49.344;11.120;2023-03-05T00:34:59;97653.00;;;3.90
18219;BMP180;9234;49.344;11.120;2023-03-05T00:37:28;97641.00;;;3.90
18219;BMP180;9234;49.344;11.120;2023-03-05T00:39:56;97642.00;;;3.90
18219;BMP180;9234;49.344;11.120;2023-03-05T00:42:25;97628.00;;;3.90
18219;BMP180;9234;49.344;11.120;2023-03-05T00:44:53;97634.00;;;3.90
18219;BMP180;9234;49.344;11.120;2023-03-05T00:47:23;97644.00;;;3.90
18219;BMP180;9234;49.344;11.120;2023-03-05T00:49:51;97628.00;;;3.90
18219;BMP180;9234;49.344;11.120;2023-03-05T00:52:20;97635.00;;;3.90
18219;BMP180;9234;49.344;11.120;2023-03-05T00:54:48;97630.00;;;3.90
18219;BMP180;9234;49.344;11.120;2023-03-05T00:57:16;97640.00;;;3.90
18219;BMP180;9234;49.344;11.120;2023-03-05T00:59:45;97626.00;;;3.90
18219;BMP180;9234;49.344;11.120;2023-03-05T01:02:13;97630.00;;;3.90
18219;BMP180;9234;49.344;11.120;2023-03-05T01:04:43;97618.00;;;3.90
18219;BMP180;9234;49.344;11.120;2023-03-05T01:07:13;97628.00;;;3.80
18219;BMP180;9234;49.344;11.120;2023-03-05T01:09:41;97627.00;;;3.90
18219;BMP180;9234;49.344;11.120;2023-03-05T01:12:09;97613.00;;;3.90
18219;BMP180;9234;49.344;11.120;2023-03-05T01:14:38;97624.00;;;3.90
18219;BMP180;9234;49.344;11.120;2023-03-05T01:17:07;97613.00;;;3.90
18219;BMP180;9234;49.344;11.120;2023-03-05T01:19:37;97607.00;;;3.90
18219;BMP180;9234;49.344;11.120;2023-03-05T01:22:06;97608.00;;;3.90
18219;BMP180;9234;49.344;11.120;2023-03-05T01:24:34;97605.00;;;3.90
18219;BMP180;9234;49.344;11.120;2023-03-05T01:27:03;97613.00;;;3.90
18219;BMP180;9234;49.344;11.120;2023-03-05T01:29:31;97617.00;;;3.80
18219;BMP180;9234;49.344;11.120;2023-03-05T01:31:59;97599.00;;;3.80
18219;BMP180;9234;49.344;11.120;2023-03-05T01:34:28;97615.00;;;3.80
18219;BMP180;9234;49.344;11.120;2023-03-05T01:36:56;97597.00;;;3.80
18219;BMP180;9234;49.344;11.120;2023-03-05T01:39:26;97594.00;;;3.80
18219;BMP180;9234;49.344;11.120;2023-03-05T01:41:54;97595.00;;;3.80
18219;BMP180;9234;49.344;11.120;2023-03-05T01:44:25;97595.00;;;3.80
18219;BMP180;9234;49.344;11.120;2023-03-05T01:46:55;97592.00;;;3.80
18219;BMP180;9234;49.344;11.120;2023-03-05T01:49:26;97588.00;;;3.80
18219;BMP180;9234;49.344;11.120;2023-03-05T01:52:02;97593.00;;;3.80
18219;BMP180;9234;49.344;11.120;2023-03-05T01:54:38;97595.00;;;3.80
18219;BMP180;9234;49.344;11.120;2023-03-05T01:57:13;97585.00;;;3.80
18219;BMP180;9234;49.344;11.120;2023-03-05T01:59:48;97596.00;;;3.80
18219;BMP180;9234;49.344;11.120;2023-03-05T02:02:18;97586.00;;;3.80
18219;BMP180;9234;49.344;11.120;2023-03-05T02:04:53;97575.00;;;3.80
18219;BMP180;9234;49.344;11.120;2023-03-05T02:07:23;97580.00;;;3.80
18219;BMP180;9234;49.344;11.120;2023-03-05T02:09:53;97588.00;;;3.80
18219;BMP180;9234;49.344;11.120;2023-03-05T02:12:22;97568.00;;;3.80
18219;BMP180;9234;49.344;11.120;2023-03-05T02:14:52;97572.00;;;3.80
18219;BMP180;9234;49.344;11.120;2023-03-05T02:17:27;97561.00;;;3.80
18219;BMP180;9234;49.344;11.120;2023-03-05T02:20:04;97574.00;;;3.80
18219;BMP180;9234;49.344;11.120;2023-03-05T02:22:34;97559.00;;;3.80
18219;BMP180;9234;49.344;11.120;2023-03-05T02:25:14;97570.00;;;3.80
18219;BMP180;9234;49.344;11.120;2023-03-05T02:27:50;97557.00;;;3.80
18219;BMP180;9234;49.344;11.120;2023-03-05T02:30:22;97547.00;;;3.80
18219;BMP180;9234;49.344;11.120;2023-03-05T02:32:51;97556.00;;;3.80
18219;BMP180;9234;49.344;11.120;2023-03-05T02:35:20;97547.00;;;3.80
18219;BMP180;9234;49.344;11.120;2023-03-05T02:37:50;97556.00;;;3.80
18219;BMP180;9234;49.344;11.120;2023-03-05T02:40:19;97564.00;;;3.80
18219;BMP180;9234;49.344;11.120;2023-03-05T02:42:47;97561.00;;;3.80
18219;BMP180;9234;49.344;11.120;2023-03-05T02:45:15;97544.00;;;3.70
18219;BMP180;9234;49.344;11.120;2023-03-05T02:47:44;97542.00;;;3.70
18219;BMP180;9234;49.344;11.120;2023-03-05T02:50:12;97538.00;;;3.70
18219;BMP180;9234;49.344;11.120;2023-03-05T02:52:41;97546.00;;;3.70
18219;BMP180;9234;49.344;11.120;2023-03-05T02:55:15;97538.00;;;3.70
18219;BMP180;9234;49.344;11.120;2023-03-05T02:57:43;97533.00;;;3.70
18219;BMP180;9234;49.344;11.120;2023-03-05T03:00:13;97524.00;;;3.70
18219;BMP180;9234;49.344;11.120;2023-03-05T03:02:41;97528.00;;;3.70
18219;BMP180;9234;49.344;11.120;2023-03-05T03:05:10;97528.00;;;3.70
18219;BMP180;9234;49.344;11.120;2023-03-05T03:07:38;97523.00;;;3.70
18219;BMP180;9234;49.344;11.120;2023-03-05T03:10:08;97520.00;;;3.70
18219;BMP180;9234;49.344;11.120;2023-03-05T03:12:39;97498.00;;;3.70
18219;BMP180;9234;49.344;11.120;2023-03-05T03:15:10;97515.00;;;3.70
18219;BMP180;9234;49.344;11.120;2023-03-05T03:17:39;97499.00;;;3.70
18219;BMP180;9234;49.344;11.120;2023-03-05T03:20:11;97511.00;;;3.70
18219;BMP180;9234;49.344;11.120;2023-03-05T03:22:42;97503.00;;;3.70
18219;BMP180;9234;49.344;11.120;2023-03-05T03:25:15;97504.00;;;3.70
18219;BMP180;9234;49.344;11.120;2023-03-05T03:27:45;97521.00;;;3.70
18219;BMP180;9234;49.344;11.120;2023-03-05T03:30:14;97510.00;;;3.70
18219;BMP180;9234;49.344;11.120;2023-03-05T03:32:43;97504.00;;;3.70
18219;BMP180;9234;49.344;11.120;2023-03-05T03:35:12;97516.00;;;3.70
18219;BMP180;9234;49.344;11.120;2023-03-05T03:37:40;97495.00;;;3.70
18219;BMP180;9234;49.344;11.120;2023-03-05T03:40:11;97492.00;;;3.70
18219;BMP180;9234;49.344;11.120;2023-03-05T03:42:39;97496.00;;;3.70
18219;BMP180;9234;49.344;11.120;2023-03-05T03:45:11;97515.00;;;3.70
18219;BMP180;9234;49.344;11.120;2023-03-05T03:47:39;97505.00;;;3.60
18219;BMP180;9234;49.344;11.120;2023-03-05T03:50:09;97520.00;;;3.60
18219;BMP180;9234;49.344;11.120;2023-03-05T03:52:37;97497.00;;;3.60
18219;BMP180;9234;49.344;11.120;2023-03-05T03:55:07;97505.00;;;3.60
18219;BMP180;9234;49.344;11.120;2023-03-05T03:57:36;97487.00;;;3.60
18219;BMP180;9234;49.344;11.120;2023-03-05T04:00:06;97483.00;;;3.60
18219;BMP180;9234;49.344;11.120;2023-03-05T04:02:39;97493.00;;;3.60
18219;BMP180;9234;49.344;11.120;2023-03-05T04:05:08;97487.00;;;3.60
18219;BMP180;9234;49.344;11.120;2023-03-05T04:07:36;97480.00;;;3.60
18219;BMP180;9234;49.344;11.120;2023-03-05T04:10:06;97479.00;;;3.60
18219;BMP180;9234;49.344;11.120;2023-03-05T04:12:34;97478.00;;;3.60
18219;BMP180;9234;49.344;11.120;2023-03-05T04:15:03;97487.00;;;3.70
18219;BMP180;9234;49.344;11.120;2023-03-05T04:17:33;97485.00;;;3.60
18219;BMP180;9234;49.344;11.120;2023-03-05T04:20:04;97476.00;;;3.60
18219;BMP180;9234;49.344;11.120;2023-03-05T04:22:36;97476.00;;;3.70
18219;BMP180;9234;49.344;11.120;2023-03-05T04:25:07;97484.00;;;3.70
18219;BMP180;9234;49.344;11.120;2023-03-05T04:27:36;97480.00;;;3.70
18219;BMP180;9234;49.344;11.120;2023-03-05T04:30:09;97474.00;;;3.70
18219;BMP180;9234;49.344;11.120;2023-03-05T04:32:41;97471.00;;;3.70
18219;BMP180;9234;49.344;11.120;2023-03-05T04:35:11;97468.00;;;3.70
18219;BMP180;9234;49.344;11.120;2023-03-05T04:37:39;97474.00;;;3.60
18219;BMP180;9234;49.344;11.120;2023-03-05T04:40:09;97461.00;;;3.60
18219;BMP180;9234;49.344;11.120;2023-03-05T04:42:38;97480.00;;;3.60
18219;BMP180;9234;49.344;11.120;2023-03-05T04:45:08;97455.00;;;3.60
18219;BMP180;9234;49.344;11.120;2023-03-05T04:47:37;97456.00;;;3.60
18219;BMP180;9234;49.344;11.120;2023-03-05T04:50:11;97460.00;;;3.60
18219;BMP180;9234;49.344;11.120;2023-03-05T04:52:42;97460.00;;;3.60
18219;BMP180;9234;49.344;11.120;2023-03-05T04:55:13;97452.00;;;3.60
18219;BMP180;9234;49.344;11.120;2023-03-05T04:57:42;97454.00;;;3.60
18219;BMP180;9234;49.344;11.120;2023-03-05T05:00:13;97458.00;;;3.60
18219;BMP180;9234;49.344;11.120;2023-03-05T05:02:44;97455.00;;;3.50
18219;BMP180;9234;49.344;11.120;2023-03-05T05:05:18;97454.00;;;3.50
18219;BMP180;9234;49.344;11.120;2023-03-05T05:07:46;97450.00;;;3.50
18219;BMP180;9234;49.344;11.120;2023-03-05T05:10:15;97446.00;;;3.50
18219;BMP180;9234;49.344;11.120;2023-03-05T05:12:44;97447.00;;;3.50
18219;BMP180;9234;49.344;11.120;2023-03-05T05:15:12;97452.00;;;3.50
18219;BMP180;9234;49.344;11.120;2023-03-05T05:17:41;97443.00;;;3.50
18219;BMP180;9234;49.344;11.120;2023-03-05T05:20:12;97437.00;;;3.50
18219;BMP180;9234;49.344;11.120;2023-03-05T05:22:43;97432.00;;;3.50
18219;BMP180;9234;49.344;11.120;2023-03-05T05:25:11;97452.00;;;3.50
18219;BMP180;9234;49.344;11.120;2023-03-05T05:27:39;97453.00;;;3.50
18219;BMP180;9234;49.344;11.120;2023-03-05T05:30:10;97445.00;;;3.50
18219;BMP180;9234;49.344;11.120;2023-03-05T05:32:38;97450.00;;;3.50
18219;BMP180;9234;49.344;11.120;2023-03-05T05:35:08;97440.00;;;3.50
18219;BMP180;9234;49.344;11.120;2023-03-05T05:37:37;97436.00;;;3.50
18219;BMP180;9234;49.344;11.120;2023-03-05T05:40:08;97438.00;;;3.50
18219;BMP180;9234;49.344;11.120;2023-03-05T05:42:37;97450.00;;;3.50
18219;BMP180;9234;49.344;11.120;2023-03-05T05:45:07;97442.00;;;3.50
18219;BMP180;9234;49.344;11.120;2023-03-05T05:47:36;97437.00;;;3.60
18219;BMP180;9234;49.344;11.120;2023-03-05T05:50:05;97441.00;;;3.60
18219;BMP180;9234;49.344;11.120;2023-03-05T05:52:34;97440.00;;;3.60
18219;BMP180;9234;49.344;11.120;2023-03-05T05:55:04;97437.00;;;3.60
18219;BMP180;9234;49.344;11.120;2023-03-05T05:57:34;97449.00;;;3.60
18219;BMP180;9234;49.344;11.120;2023-03-05T06:00:08;97453.00;;;3.60
18219;BMP180;9234;49.344;11.120;2023-03-05T06:02:41;97458.00;;;3.60
18219;BMP180;9234;49.344;11.120;2023-03-05T06:05:12;97458.00;;;3.60
18219;BMP180;9234;49.344;11.120;2023-03-05T06:07:41;97438.00;;;3.60
18219;BMP180;9234;49.344;11.120;2023-03-05T06:10:10;97446.00;;;3.60
18219;BMP180;9234;49.344;11.120;2023-03-05T06:12:40;97445.00;;;3.60
18219;BMP180;9234;49.344;11.120;2023-03-05T06:15:09;97450.00;;;3.60
18219;BMP180;9234;49.344;11.120;2023-03-05T06:17:37;97448.00;;;3.70
18219;BMP180;9234;49.344;11.120;2023-03-05T06:20:08;97450.00;;;3.60
18219;BMP180;9234;49.344;11.120;2023-03-05T06:22:37;97450.00;;;3.60
18219;BMP180;9234;49.344;11.120;2023-03-05T06:25:07;97464.00;;;3.70
18219;BMP180;9234;49.344;11.120;2023-03-05T06:27:36;97443.00;;;3.70
18219;BMP180;9234;49.344;11.120;2023-03-05T06:30:09;97468.00;;;3.70
18219;BMP180;9234;49.344;11.120;2023-03-05T06:32:38;97450.00;;;3.70
18219;BMP180;9234;49.344;11.120;2023-03-05T06:35:07;97449.00;;;3.70
18219;BMP180;9234;49.344;11.120;2023-03-05T06:37:36;97451.00;;;3.80
18219;BMP180;9234;49.344;11.120;2023-03-05T06:40:05;97448.00;;;3.70
18219;BMP180;9234;49.344;11.120;2023-03-05T06:42:34;97444.00;;;3.70
18219;BMP180;9234;49.344;11.120;2023-03-05T06:45:04;97449.00;;;3.80
18219;BMP180;9234;49.344;11.120;2023-03-05T06:47:33;97443.00;;;3.70
18219;BMP180;9234;49.344;11.120;2023-03-05T06:54:34;97438.00;;;3.80
18219;BMP180;9234;49.344;11.120;2023-03-05T06:57:02;97444.00;;;3.80
18219;BMP180;9234;49.344;11.120;2023-03-05T06:59:32;97437.00;;;3.80
18219;BMP180;9234;49.344;11.120;2023-03-05T07:02:00;97451.00;;;3.90
18219;BMP180;9234;49.344;11.120;2023-03-05T07:04:30;97442.00;;;3.90
18219;BMP180;9234;49.344;11.120;2023-03-05T07:06:58;97444.00;;;3.90
18219;BMP180;9234;49.344;11.120;2023-03-05T07:09:27;97447.00;;;4.00
18219;BMP180;9234;49.344;11.120;2023-03-05T07:11:56;97441.00;;;4.00
18219;BMP180;9234;49.344;11.120;2023-03-05T07:14:24;97445.00;;;4.00
18219;BMP180;9234;49.344;11.120;2023-03-05T07:16:53;97438.00;;;4.10
18219;BMP180;9234;49.344;11.120;2023-03-05T07:19:21;97430.00;;;4.10
18219;BMP180;9234;49.344;11.120;2023-03-05T07:21:50;97440.00;;;4.10
18219;BMP180;9234;49.344;11.120;2023-03-05T07:24:18;97429.00;;;4.10
18219;BMP180;9234;49.344;11.120;2023-03-05T07:26:47;97433.00;;;4.10
18219;BMP180;9234;49.344;11.120;2023-03-05T07:29:15;97441.00;;;4.10
18219;BMP180;9234;49.344;11.120;2023-03-05T07:31:43;97437.00;;;4.20
18219;BMP180;9234;49.344;11.120;2023-03-05T07:34:11;97435.00;;;4.20
18219;BMP180;9234;49.344;11.120;2023-03-05T07:36:40;97431.00;;;4.20
18219;BMP180;9234;49.344;11.120;2023-03-05T07:39:11;97439.00;;;4.20
18219;BMP180;9234;49.344;11.120;2023-03-05T07:41:39;97433.00;;;4.20
18219;BMP180;9234;49.344;11.120;2023-03-05T07:44:09;97424.00;;;4.30
18219;BMP180;9234;49.344;11.120;2023-03-05T07:46:37;97421.00;;;4.30
18219;BMP180;9234;49.344;11.120;2023-03-05T07:49:06;97430.00;;;4.40
18219;BMP180;9234;49.344;11.120;2023-03-05T07:51:34;97423.00;;;4.50
18219;BMP180;9234;49.344;11.120;2023-03-05T07:54:03;97426.00;;;4.50
18219;BMP180;9234;49.344;11.120;2023-03-05T07:56:34;97427.00;;;4.60
18219;BMP180;9234;49.344;11.120;2023-03-05T07:59:06;97431.00;;;4.70
18219;BMP180;9234;49.344;11.120;2023-03-05T08:01:37;97416.00;;;4.70
18219;BMP180;9234;49.344;11.120;2023-03-05T08:04:07;97420.00;;;4.80
18219;BMP180;9234;49.344;11.120;2023-03-05T08:06:39;97439.00;;;4.90
18219;BMP180;9234;49.344;11.120;2023-03-05T08:09:07;97415.00;;;5.00
18219;BMP180;9234;49.344;11.120;2023-03-05T08:11:38;97404.00;;;5.00
18219;BMP180;9234;49.344;11.120;2023-03-05T08:14:07;97423.00;;;5.10
18219;BMP180;9234;49.344;11.120;2023-03-05T08:16:35;97412.00;;;5.20
18219;BMP180;9234;49.344;11.120;2023-03-05T08:19:05;97400.00;;;5.30
18219;BMP180;9234;49.344;11.120;2023-03-05T08:21:35;97401.00;;;5.40
18219;BMP180;9234;49.344;11.120;2023-03-05T08:24:06;97411.00;;;5.40
18219;BMP180;9234;49.344;11.120;2023-03-05T08:27:15;97414.00;;;5.40
18219;BMP180;9234;49.344;11.120;2023-03-05T08:29:43;97412.00;;;5.50
18219;BMP180;9234;49.344;11.120;2023-03-05T08:32:12;97397.00;;;5.60
18219;BMP180;9234;49.344;11.120;2023-03-05T08:34:40;97406.00;;;5.70
18219;BMP180;9234;49.344;11.120;2023-03-05T08:37:08;97407.00;;;5.80
18219;BMP180;9234;49.344;11.120;2023-03-05T08:39:36;97409.00;;;6.00
18219;BMP180;9234;49.344;11.120;2023-03-05T08:42:06;97411.00;;;6.10
18219;BMP180;9234;49.344;11.120;2023-03-05T08:44:36;97396.00;;;6.10
18219;BMP180;9234;49.344;11.120;2023-03-05T08:47:04;97399.00;;;6.20
18219;BMP180;9234;49.344;11.120;2023-03-05T08:49:33;97389.00;;;6.30
18219;BMP180;9234;49.344;11.120;2023-03-05T08:52:01;97404.00;;;6.40
18219;BMP180;9234;49.344;11.120;2023-03-05T08:54:32;97403.00;;;6.50
18219;BMP180;9234;49.344;11.120;2023-03-05T08:57:03;97394.00;;;6.60
18219;BMP180;9234;49.344;11.120;2023-03-05T08:59:32;97397.00;;;6.50
18219;BMP180;9234;49.344;11.120;2023-03-05T09:02:02;97397.00;;;6.50
18219;BMP180;9234;49.344;11.120;2023-03-05T09:04:30;97393.00;;;6.50
18219;BMP180;9234;49.344;11.120;2023-03-05T09:06:59;97387.00;;;6.50
18219;BMP180;9234;49.344;11.120;2023-03-05T09:09:27;97385.00;;;6.50
18219;BMP180;9234;49.344;11.120;2023-03-05T09:11:58;97397.00;;;6.40
18219;BMP180;9234;49.344;11.120;2023-03-05T09:14:27;97386.00;;;6.30
18219;BMP180;9234;49.344;11.120;2023-03-05T09:16:56;97405.00;;;6.30
18219;BMP180;9234;49.344;11.120;2023-03-05T09:19:26;97397.00;;;6.30
18219;BMP180;9234;49.344;11.120;2023-03-05T09:21:55;97380.00;;;6.30
18219;BMP180;9234;49.344;11.120;2023-03-05T09:24:23;97381.00;;;6.30
18219;BMP180;9234;49.344;11.120;2023-03-05T09:26:52;97384.00;;;6.20
18219;BMP180;9234;49.344;11.120;2023-03-05T09:29:20;97391.00;;;6.20
18219;BMP180;9234;49.344;11.120;2023-03-05T09:31:50;97387.00;;;6.20
18219;BMP180;9234;49.344;11.120;2023-03-05T09:34:18;97373.00;;;6.20
18219;BMP180;9234;49.344;11.120;2023-03-05T09:36:48;97375.00;;;6.10
18219;BMP180;9234;49.344;11.120;2023-03-05T09:39:17;97387.00;;;6.00
18219;BMP180;9234;49.344;11.120;2023-03-05T09:42:23;97370.00;;;5.90
18219;BMP180;9234;49.344;11.120;2023-03-05T09:45:11;97384.00;;;5.90
18219;BMP180;9234;49.344;11.120;2023-03-05T09:47:52;97372.00;;;5.90
18219;BMP180;9234;49.344;11.120;2023-03-05T09:50:34;97374.00;;;5.90
18219;BMP180;9234;49.344;11.120;2023-03-05T09:53:15;97377.00;;;5.80
18219;BMP180;9234;49.344;11.120;2023-03-05T09:55:49;97367.00;;;5.80
18219;BMP180;9234;49.344;11.120;2023-03-05T09:58:27;97370.00;;;5.80
18219;BMP180;9234;49.344;11.120;2023-03-05T10:01:02;97367.00;;;5.70
18219;BMP180;9234;49.344;11.120;2023-03-05T10:03:53;97367.00;;;5.60
18219;BMP180;9234;49.344;11.120;2023-03-05T10:06:28;97371.00;;;5.60
18219;BMP180;9234;49.344;11.120;2023-03-05T10:09:06;97377.00;;;5.60
18219;BMP180;9234;49.344;11.120;2023-03-05T10:11:48;97374.00;;;5.60
18219;BMP180;9234;49.344;11.120;2023-03-05T10:14:25;97375.00;;;5.50
18219;BMP180;9234;49.344;11.120;2023-03-05T10:17:49;97364.00;;;5.60
18219;BMP180;9234;49.344;11.120;2023-03-05T10:20:54;97378.00;;;5.50
18219;BMP180;9234;49.344;11.120;2023-03-05T10:23:50;97368.00;;;5.40
18219;BMP180;9234;49.344;11.120;2023-03-05T10:26:39;97379.00;;;5.40
18219;BMP180;9234;49.344;11.120;2023-03-05T10:29:38;97360.00;;;5.30
18219;BMP180;9234;49.344;11.120;2023-03-05T10:32:24;97356.00;;;5.20
18219;BMP180;9234;49.344;11.120;2023-03-05T10:35:27;97365.00;;;5.10
18219;BMP180;9234;49.344;11.120;2023-03-05T10:42:36;97352.00;;;5.00
18219;BMP180;9234;49.344;11.120;2023-03-05T10:45:31;97345.00;;;5.00
18219;BMP180;9234;49.344;11.120;2023-03-05T10:48:08;97358.00;;;5.00
18219;BMP180;9234;49.344;11.120;2023-03-05T10:50:43;97343.00;;;5.10
18219;BMP180;9234;49.344;11.120;2023-03-05T10:53:19;97350.00;;;5.10
18219;BMP180;9234;49.344;11.120;2023-03-05T10:55:50;97359.00;;;5.20
18219;BMP180;9234;49.344;11.120;2023-03-05T10:58:24;97349.00;;;5.30
18219;BMP180;9234;49.344;11.120;2023-03-05T11:01:02;97351.00;;;5.40
18219;BMP180;9234;49.344;11.120;2023-03-05T11:03:53;97326.00;;;5.40
18219;BMP180;9234;49.344;11.120;2023-03-05T11:06:37;97335.00;;;5.50
18219;BMP180;9234;49.344;11.120;2023-03-05T11:09:18;97334.00;;;5.50
18219;BMP180;9234;49.344;11.120;2023-03-05T11:12:19;97324.00;;;5.60
18219;BMP180;9234;49.344;11.120;2023-03-05T11:15:09;97330.00;;;5.70
18219;BMP180;9234;49.344;11.120;2023-03-05T11:18:06;97309.00;;;5.70
18219;BMP180;9234;49.344;11.120;2023-03-05T11:20:37;97309.00;;;5.80
18219;BMP180;9234;49.344;11.120;2023-03-05T11:23:11;97304.00;;;5.90
18219;BMP180;9234;49.344;11.120;2023-03-05T11:25:59;97309.00;;;6.00
18219;BMP180;9234;49.344;11.120;2023-03-05T11:28:33;97305.00;;;6.10
18219;BMP180;9234;49.344;11.120;2023-03-05T11:31:18;97290.00;;;6.30
18219;BMP180;9234;49.344;11.120;2023-03-05T11:34:00;97301.00;;;6.40
18219;BMP180;9234;49.344;11.120;2023-03-05T11:36:33;97292.00;;;6.60
18219;BMP180;9234;49.344;11.120;2023-03-05T11:39:13;97295.00;;;6.70
18219;BMP180;9234;49.344;11.120;2023-03-05T11:41:47;97296.00;;;6.70
18219;BMP180;9234;49.344;11.120;2023-03-05T11:44:20;97297.00;;;6.90
18219;BMP180;9234;49.344;11.120;2023-03-05T11:46:55;97277.00;;;6.90
18219;BMP180;9234;49.344;11.120;2023-03-05T11:49:28;97273.00;;;7.00
18219;BMP180;9234;49.344;11.120;2023-03-05T11:52:06;97256.00;;;7.00
18219;BMP180;9234;49.344;11.120;2023-03-05T11:54:46;97272.00;;;7.00
18219;BMP180;9234;49.344;11.120;2023-03-05T11:57:22;97260.00;;;6.80
18219;BMP180;9234;49.344;11.120;2023-03-05T11:59:54;97266.00;;;6.80
18219;BMP180;9234;49.344;11.120;2023-03-05T12:02:26;97270.00;;;6.80
18219;BMP180;9234;49.344;11.120;2023-03-05T12:04:55;97264.00;;;6.70
18219;BMP180;9234;49.344;11.120;2023-03-05T12:07:33;97255.00;;;6.80
18219;BMP180;9234;49.344;11.120;2023-03-05T12:10:12;97257.00;;;6.70
18219;BMP180;9234;49.344;11.120;2023-03-05T12:12:52;97259.00;;;6.70
18219;BMP180;9234;49.344;11.120;2023-03-05T12:15:37;97243.00;;;6.60
18219;BMP180;9234;49.344;11.120;2023-03-05T12:18:32;97240.00;;;6.60
18219;BMP180;9234;49.344;11.120;2023-03-05T12:21:14;97240.00;;;6.60
18219;BMP180;9234;49.344;11.120;2023-03-05T12:23:50;97256.00;;;6.60
18219;BMP180;9234;49.344;11.120;2023-03-05T12:27:04;97240.00;;;6.60
18219;BMP180;9234;49.344;11.120;2023-03-05T12:29:41;97224.00;;;6.70
18219;BMP180;9234;49.344;11.120;2023-03-05T12:32:58;97215.00;;;6.60
18219;BMP180;9234;49.344;11.120;2023-03-05T12:35:33;97208.00;;;6.60
18219;BMP180;9234;49.344;11.120;2023-03-05T12:38:28;97203.00;;;6.60
18219;BMP180;9234;49.344;11.120;2023-03-05T12:44:16;97195.00;;;6.70
18219;BMP180;9234;49.344;11.120;2023-03-05T12:47:17;97202.00;;;6.70
18219;BMP180;9234;49.344;11.120;2023-03-05T12:49:49;97198.00;;;6.80
18219;BMP180;9234;49.344;11.120;2023-03-05T12:52:29;97201.00;;;6.90
18219;BMP180;9234;49.344;11.120;2023-03-05T12:55:18;97190.00;;;6.90
18219;BMP180;9234;49.344;11.120;2023-03-05T12:57:53;97195.00;;;6.90
18219;BMP180;9234;49.344;11.120;2023-03-05T13:00:28;97193.00;;;6.80
18219;BMP180;9234;49.344;11.120;2023-03-05T13:03:03;97194.00;;;6.70
18219;BMP180;9234;49.344;11.120;2023-03-05T13:05:37;97188.00;;;6.70
18219;BMP180;9234;49.344;11.120;2023-03-05T13:08:20;97189.00;;;6.70
18219;BMP180;9234;49.344;11.120;2023-03-05T13:10:52;97202.00;;;6.70
18219;BMP180;9234;49.344;11.120;2023-03-05T13:13:22;97190.00;;;6.70
18219;BMP180;9234;49.344;11.120;2023-03-05T13:15:52;97195.00;;;6.60
18219;BMP180;9234;49.344;11.120;2023-03-05T13:18:24;97204.00;;;6.50
18219;BMP180;9234;49.344;11.120;2023-03-05T13:21:02;97187.00;;;6.30
18219;BMP180;9234;49.344;11.120;2023-03-05T13:23:34;97183.00;;;6.20
18219;BMP180;9234;49.344;11.120;2023-03-05T13:26:11;97184.00;;;6.20
18219;BMP180;9234;49.344;11.120;2023-03-05T13:28:42;97182.00;;;6.10
18219;BMP180;9234;49.344;11.120;2023-03-05T13:31:16;97191.00;;;6.10
18219;BMP180;9234;49.344;11.120;2023-03-05T13:33:55;97183.00;;;6.10
18219;BMP180;9234;49.344;11.120;2023-03-05T13:36:25;97184.00;;;6.10
18219;BMP180;9234;49.344;11.120;2023-03-05T13:38:56;97189.00;;;6.10
18219;BMP180;9234;49.344;11.120;2023-03-05T13:41:27;97176.00;;;6.10
18219;BMP180;9234;49.344;11.120;2023-03-05T13:43:58;97176.00;;;6.10
18219;BMP180;9234;49.344;11.120;2023-03-05T13:46:30;97168.00;;;6.10
18219;BMP180;9234;49.344;11.120;2023-03-05T13:49:20;97175.00;;;6.10
18219;BMP180;9234;49.344;11.120;2023-03-05T13:51:51;97165.00;;;6.10
18219;BMP180;9234;49.344;11.120;2023-03-05T13:54:24;97166.00;;;6.10
18219;BMP180;9234;49.344;11.120;2023-03-05T13:56:56;97139.00;;;6.10
18219;BMP180;9234;49.344;11.120;2023-03-05T13:59:27;97145.00;;;6.10
18219;BMP180;9234;49.344;11.120;2023-03-05T14:01:58;97156.00;;;6.00
18219;BMP180;9234;49.344;11.120;2023-03-05T14:04:29;97147.00;;;5.90
18219;BMP180;9234;49.344;11.120;2023-03-05T14:07:01;97144.00;;;5.90
18219;BMP180;9234;49.344;11.120;2023-03-05T14:09:45;97146.00;;;5.90
18219;BMP180;9234;49.344;11.120;2023-03-05T14:12:25;97145.00;;;5.80
18219;BMP180;9234;49.344;11.120;2023-03-05T14:14:57;97132.00;;;5.80
18219;BMP180;9234;49.344;11.120;2023-03-05T14:17:40;97139.00;;;5.80
18219;BMP180;9234;49.344;11.120;2023-03-05T14:20:22;97138.00;;;5.90
18219;BMP180;9234;49.344;11.120;2023-03-05T14:22:52;97128.00;;;5.90
18219;BMP180;9234;49.344;11.120;2023-03-05T14:25:32;97126.00;;;5.80
18219;BMP180;9234;49.344;11.120;2023-03-05T14:28:15;97122.00;;;5.80
18219;BMP180;9234;49.344;11.120;2023-03-05T14:30:51;97115.00;;;5.80
18219;BMP180;9234;49.344;11.120;2023-03-05T14:33:21;97117.00;;;5.80
18219;BMP180;9234;49.344;11.120;2023-03-05T14:35:52;97120.00;;;5.80
18219;BMP180;9234;49.344;11.120;2023-03-05T14:38:25;97107.00;;;5.70
18219;BMP180;9234;49.344;11.120;2023-03-05T14:40:56;97109.00;;;5.70
18219;BMP180;9234;49.344;11.120;2023-03-05T14:43:24;97107.00;;;5.70
18219;BMP180;9234;49.344;11.120;2023-03-05T14:45:52;97104.00;;;5.60
18219;BMP180;9234;49.344;11.120;2023-03-05T14:48:21;97102.00;;;5.60
18219;BMP180;9234;49.344;11.120;2023-03-05T14:50:52;97094.00;;;5.60
18219;BMP180;9234;49.344;11.120;2023-03-05T14:53:27;97114.00;;;5.50
18219;BMP180;9234;49.344;11.120;2023-03-05T14:55:57;97095.00;;;5.40
18219;BMP180;9234;49.344;11.120;2023-03-05T14:58:28;97102.00;;;5.50
18219;BMP180;9234;49.344;11.120;2023-03-05T15:00:58;97099.00;;;5.40
18219;BMP180;9234;49.344;11.120;2023-03-05T15:03:27;97092.00;;;5.40
18219;BMP180;9234;49.344;11.120;2023-03-05T15:05:57;97090.00;;;5.30